Latest Weather Observations for Inner Beacon

IDQ60801

Issued at 6:02 pm EST Sunday 14 February 2016 (issued every 30 minutes, with the page automatically refreshed every 10 minutes)

About weather observations | Map of weather stations | Latest weather observations for QLD | Other Formats
Station Details ID: 040926 Name: INNER RECIPROCAL MARKER Lat: -27.26 Lon: 153.24 Height: 20.0 m
Data from the previous 72 hours. | See also: Recent months for locations in Queensland
Date/Time
EST
Temp
°C
App
Temp
°C
Dew
Point
Rel
Hum
%
Delta-T
°C
Wind Press
QNH
hPa
Press
MSL
hPa
Rain
since 9 am
mm
Dir
 
Spd
km/h
Gust
km/h
Spd
kts
Gust
kts
14/06:00pm - - - - - SE 33 39 18 21 - - -
14/05:30pm - - - - - SE 33 39 18 21 - - -
14/05:00pm - - - - - ESE 33 39 18 21 - - -
14/04:30pm - - - - - SE 33 37 18 20 - - -
14/04:00pm - - - - - SE 30 37 16 20 - - -
14/03:30pm - - - - - SE 33 39 18 21 - - -
14/03:00pm - - - - - SE 33 41 18 22 - - -
14/02:30pm - - - - - SE 32 37 17 20 - - -
14/02:00pm - - - - - SE 30 35 16 19 - - -
14/01:30pm - - - - - SSE 30 35 16 19 - - -
14/01:00pm - - - - - SSE 28 33 15 18 - - -
14/12:30pm - - - - - SSE 28 33 15 18 - - -
14/12:00pm - - - - - SSE 28 32 15 17 - - -
14/11:30am - - - - - SSE 30 33 16 18 - - -
14/11:00am - - - - - SSE 32 37 17 20 - - -
14/10:30am - - - - - SSE 37 44 20 24 - - -
14/10:00am - - - - - SSE 39 46 21 25 - - -
14/09:30am - - - - - SSE 35 44 19 24 - - -
14/09:00am - - - - - S 28 33 15 18 - - -
14/08:30am - - - - - S 30 37 16 20 - - -
14/08:00am - - - - - S 24 28 13 15 - - -
14/07:30am - - - - - SSW 28 32 15 17 - - -
14/07:00am - - - - - SSW 26 30 14 16 - - -
14/06:30am - - - - - SSW 28 30 15 16 - - -
14/06:00am - - - - - SSW 24 30 13 16 - - -
14/05:30am - - - - - SSW 24 30 13 16 - - -
14/05:00am - - - - - SSW 22 26 12 14 - - -
14/04:30am - - - - - SSW 26 32 14 17 - - -
14/04:00am - - - - - SSW 26 30 14 16 - - -
14/03:30am - - - - - SSW 28 33 15 18 - - -
14/03:00am - - - - - S 28 33 15 18 - - -
14/02:30am - - - - - S 28 33 15 18 - - -
14/02:00am - - - - - SSW 30 35 16 19 - - -
14/01:30am - - - - - S 30 35 16 19 - - -
14/01:00am - - - - - S 30 35 16 19 - - -
14/12:30am - - - - - S 30 35 16 19 - - -
14/12:00am - - - - - S 30 35 16 19 - - -
 
Date/Time
EST
Temp
°C
App
Temp
°C
Dew
Point
Rel
Hum
%
Delta-T
°C
Wind Press
QNH
hPa
Press
MSL
hPa
Rain
since 9 am
mm
Dir
 
Spd
km/h
Gust
km/h
Spd
kts
Gust
kts
13/11:30pm - - - - - S 30 37 16 20 - - -
13/11:00pm - - - - - S 30 35 16 19 - - -
13/10:30pm - - - - - S 30 35 16 19 - - -
13/10:00pm - - - - - S 30 33 16 18 - - -
13/09:30pm - - - - - S 32 37 17 20 - - -
13/09:00pm - - - - - SSE 35 41 19 22 - - -
13/08:30pm - - - - - SSE 41 50 22 27 - - -
13/08:00pm - - - - - SSE 43 52 23 28 - - -
13/07:30pm - - - - - SSE 39 46 21 25 - - -
13/07:00pm - - - - - SSE 41 50 22 27 - - -
13/06:30pm - - - - - SSE 43 52 23 28 - - -
13/06:00pm - - - - - SSE 43 50 23 27 - - -
13/05:30pm - - - - - SSE 43 52 23 28 - - -
13/05:00pm - - - - - SSE 43 50 23 27 - - -
13/04:30pm - - - - - SSE 37 48 20 26 - - -
13/04:00pm - - - - - SSE 43 50 23 27 - - -
13/03:30pm - - - - - SSE 41 48 22 26 - - -
13/03:00pm - - - - - SSE 43 52 23 28 - - -
13/02:30pm - - - - - SE 44 52 24 28 - - -
13/02:00pm - - - - - SE 41 48 22 26 - - -
13/01:30pm - - - - - SSE 35 43 19 23 - - -
13/01:00pm - - - - - SSE 37 43 20 23 - - -
13/12:30pm - - - - - S 33 43 18 23 - - -
13/12:00pm - - - - - S 39 48 21 26 - - -
13/11:30am - - - - - SSE 39 50 21 27 - - -
13/11:00am - - - - - S 41 52 22 28 - - -
13/10:30am - - - - - SSE 37 43 20 23 - - -
13/10:00am - - - - - S 37 44 20 24 - - -
13/09:30am - - - - - SSE 37 43 20 23 - - -
13/09:00am - - - - - S 37 48 20 26 - - -
13/08:30am - - - - - S 43 54 23 29 - - -
13/08:00am - - - - - S 33 43 18 23 - - -
13/07:30am - - - - - S 35 43 19 23 - - -
13/07:00am - - - - - S 35 46 19 25 - - -
13/06:30am - - - - - S 37 44 20 24 - - -
13/06:00am - - - - - S 37 43 20 23 - - -
13/05:30am - - - - - S 39 46 21 25 - - -
13/05:00am - - - - - S 33 41 18 22 - - -
13/04:30am - - - - - S 33 37 18 20 - - -
13/04:00am - - - - - S 30 35 16 19 - - -
13/03:30am - - - - - S 32 35 17 19 - - -
13/03:00am - - - - - S 28 32 15 17 - - -
13/02:30am - - - - - S 28 32 15 17 - - -
13/02:00am - - - - - S 30 33 16 18 - - -
13/01:30am - - - - - S 28 32 15 17 - - -
13/01:00am - - - - - S 30 35 16 19 - - -
13/12:30am - - - - - S 30 35 16 19 - - -
13/12:00am - - - - - SSW 28 32 15 17 - - -
 
Date/Time
EST
Temp
°C
App
Temp
°C
Dew
Point
Rel
Hum
%
Delta-T
°C
Wind Press
QNH
hPa
Press
MSL
hPa
Rain
since 9 am
mm
Dir
 
Spd
km/h
Gust
km/h
Spd
kts
Gust
kts
12/11:30pm - - - - - S 24 30 13 16 - - -
12/11:00pm - - - - - SSE 35 46 19 25 - - -
12/10:30pm - - - - - SSE 37 44 20 24 - - -
12/10:00pm - - - - - SSE 37 43 20 23 - - -
12/09:30pm - - - - - SE 35 44 19 24 - - -
12/09:00pm - - - - - SSE 35 44 19 24 - - -
12/08:30pm - - - - - SSE 39 46 21 25 - - -
12/08:00pm - - - - - SSE 41 48 22 26 - - -
12/07:30pm - - - - - SSE 39 46 21 25 - - -
12/07:00pm - - - - - SSE 41 52 22 28 - - -
12/06:30pm - - - - - SSE 43 50 23 27 - - -
12/06:00pm - - - - - SE 39 48 21 26 - - -
12/05:30pm - - - - - SSE 41 50 22 27 - - -
12/05:00pm - - - - - SE 41 48 22 26 - - -
12/04:30pm - - - - - SE 43 52 23 28 - - -
12/04:00pm - - - - - SE 43 50 23 27 - - -
12/03:30pm - - - - - SE 39 46 21 25 - - -
12/03:00pm - - - - - SE 39 44 21 24 - - -
12/02:30pm - - - - - SE 39 44 21 24 - - -
12/02:00pm - - - - - SE 37 43 20 23 - - -
12/01:30pm - - - - - SE 35 43 19 23 - - -
12/01:00pm - - - - - SE 37 43 20 23 - - -
12/12:30pm - - - - - SE 37 43 20 23 - - -
12/12:00pm - - - - - SE 33 41 18 22 - - -
12/11:30am - - - - - SE 32 41 17 22 - - -
12/11:00am - - - - - SE 32 37 17 20 - - -
12/10:30am - - - - - SE 33 39 18 21 - - -
12/10:00am - - - - - SE 33 39 18 21 - - -
12/09:30am - - - - - SE 30 35 16 19 - - -
12/09:00am - - - - - SSE 26 32 14 17 - - -
12/08:30am - - - - - SSE 28 32 15 17 - - -
12/08:00am - - - - - S 28 33 15 18 - - -
12/07:30am - - - - - SSW 24 28 13 15 - - -
12/07:00am - - - - - S 28 33 15 18 - - -
12/06:30am - - - - - S 28 32 15 17 - - -
12/06:00am - - - - - S 26 33 14 18 - - -
12/05:30am - - - - - S 30 33 16 18 - - -
12/05:00am - - - - - S 30 35 16 19 - - -
12/04:30am - - - - - S 26 30 14 16 - - -
12/04:00am - - - - - S 24 28 13 15 - - -
12/03:30am - - - - - S 24 30 13 16 - - -
12/03:00am - - - - - S 26 32 14 17 - - -
12/02:30am - - - - - S 26 30 14 16 - - -
12/02:00am - - - - - SSE 24 32 13 17 - - -
12/01:30am - - - - - SSE 26 30 14 16 - - -
12/01:00am - - - - - SE 26 32 14 17 - - -
12/12:30am - - - - - SSE 24 28 13 15 - - -
12/12:00am - - - - - SE 24 28 13 15 - - -
 
Date/Time
EST
Temp
°C
App
Temp
°C
Dew
Point
Rel
Hum
%
Delta-T
°C
Wind Press
QNH
hPa
Press
MSL
hPa
Rain
since 9 am
mm
Dir
 
Spd
km/h
Gust
km/h
Spd
kts
Gust
kts
11/11:30pm - - - - - SSE 24 30 13 16 - - -
11/11:00pm - - - - - SE 24 30 13 16 - - -
11/10:30pm - - - - - SE 26 30 14 16 - - -
11/10:00pm - - - - - SE 28 35 15 19 - - -
11/09:30pm - - - - - SE 30 33 16 18 - - -
11/09:00pm - - - - - SE 32 37 17 20 - - -
11/08:30pm - - - - - SE 28 32 15 17 - - -
11/08:00pm - - - - - SE 32 35 17 19 - - -
11/07:30pm - - - - - SE 32 37 17 20 - - -
11/07:00pm - - - - - ESE 33 39 18 21 - - -
11/06:30pm - - - - - ESE 35 41 19 22 - - -

Other Formats:

Comma delimited format used in spreadsheet applications
http://www.bom.gov.au/fwo/IDQ60801/IDQ60801.94590.axf

JavaScript Object Notation format (JSON) in row-major order
http://www.bom.gov.au/fwo/IDQ60801/IDQ60801.94590.json